createdAt,value
2024-04-18T00:01:11.555Z,4.40
2024-04-18T00:03:38.716Z,4.37
2024-04-18T00:06:05.780Z,4.71
2024-04-18T00:08:32.667Z,4.91
2024-04-18T00:11:19.546Z,4.66
2024-04-18T00:13:46.461Z,5.36
2024-04-18T00:16:33.328Z,5.65
2024-04-18T00:19:19.075Z,5.48
2024-04-18T00:21:58.877Z,6.50
2024-04-18T00:24:26.235Z,7.32
2024-04-18T00:26:53.120Z,8.00
2024-04-18T00:29:20.016Z,8.54
2024-04-18T00:31:46.955Z,7.12
2024-04-18T00:34:33.932Z,6.58
2024-04-18T00:37:00.867Z,6.25
2024-04-18T00:39:27.845Z,6.29
2024-04-18T00:42:00.798Z,5.51
2024-04-18T00:44:30.221Z,4.85
2024-04-18T00:47:23.063Z,4.84
2024-04-18T00:50:10.891Z,5.25
2024-04-18T00:52:40.824Z,4.65
2024-04-18T00:55:08.185Z,4.98
2024-04-18T00:57:36.924Z,5.25
2024-04-18T01:00:07.155Z,5.39
2024-04-18T01:02:52.741Z,5.40
2024-04-18T01:05:33.339Z,5.27
2024-04-18T01:08:00.256Z,4.96
2024-04-18T01:10:47.149Z,4.68
2024-04-18T01:13:14.101Z,4.73
2024-04-18T01:15:59.299Z,4.50
2024-04-18T01:18:26.236Z,4.86
2024-04-18T01:21:13.193Z,4.74
2024-04-18T01:23:40.147Z,4.60
2024-04-18T01:26:07.041Z,4.42
2024-04-18T01:28:33.965Z,4.28
2024-04-18T01:31:00.865Z,4.34
2024-04-18T01:33:27.963Z,4.15
2024-04-18T01:35:54.956Z,4.28
2024-04-18T01:38:21.893Z,4.30
2024-04-18T01:40:48.831Z,39.86
2024-04-18T01:43:34.287Z,50.78
2024-04-18T01:46:19.765Z,23.37
2024-04-18T01:49:01.597Z,7.65
2024-04-18T01:51:47.518Z,5.53
2024-04-18T01:54:33.634Z,5.28
2024-04-18T01:57:01.616Z,5.33
2024-04-18T01:59:48.538Z,5.63
2024-04-18T02:02:15.451Z,5.22
2024-04-18T02:05:02.457Z,5.04
2024-04-18T02:07:44.752Z,4.93
2024-04-18T02:10:11.688Z,4.97
2024-04-18T02:12:59.820Z,4.56
2024-04-18T02:15:45.075Z,4.62
2024-04-18T02:18:14.822Z,4.80
2024-04-18T02:20:41.884Z,4.66
2024-04-18T02:23:23.554Z,4.46
2024-04-18T02:25:51.088Z,4.20
2024-04-18T02:28:18.009Z,4.02
2024-04-18T02:30:44.982Z,4.20
2024-04-18T02:33:17.345Z,4.17
2024-04-18T02:35:48.965Z,3.86
2024-04-18T02:38:34.754Z,3.87
2024-04-18T02:41:06.447Z,3.80
2024-04-18T02:43:51.251Z,3.69
2024-04-18T02:46:18.348Z,4.05
2024-04-18T02:49:03.815Z,4.04
2024-04-18T02:51:30.771Z,4.13
2024-04-18T02:54:13.103Z,4.09
2024-04-18T02:56:40.789Z,4.07
2024-04-18T02:59:13.282Z,4.00
2024-04-18T03:01:49.314Z,4.08
2024-04-18T03:04:16.216Z,4.03
2024-04-18T03:06:43.252Z,4.14
2024-04-18T03:09:13.673Z,4.66
2024-04-18T03:11:54.019Z,5.65
2024-04-18T03:14:43.222Z,6.23
2024-04-18T03:17:10.222Z,6.20
2024-04-18T03:19:55.837Z,5.90
2024-04-18T03:22:25.869Z,5.91
2024-04-18T03:25:02.323Z,5.55
2024-04-18T03:27:32.441Z,5.92
2024-04-18T03:29:59.373Z,6.95
2024-04-18T03:32:36.689Z,8.49
2024-04-18T03:35:06.990Z,8.29
2024-04-18T03:37:38.632Z,7.45
2024-04-18T03:40:25.089Z,5.17
2024-04-18T03:43:03.983Z,4.38
2024-04-18T03:45:30.866Z,4.45
2024-04-18T03:48:17.846Z,5.01
2024-04-18T03:50:44.757Z,5.11
2024-04-18T03:53:22.383Z,4.44
2024-04-18T03:56:07.897Z,6.93
2024-04-18T03:58:34.794Z,7.61
2024-04-18T04:01:01.700Z,6.41
2024-04-18T04:03:28.879Z,5.04
2024-04-18T04:05:55.840Z,4.57
2024-04-18T04:08:22.722Z,4.04
2024-04-18T04:11:09.679Z,4.13
2024-04-18T04:13:36.665Z,3.99
2024-04-18T04:16:16.771Z,4.19
2024-04-18T04:18:44.509Z,4.33
2024-04-18T04:21:37.490Z,4.17
2024-04-18T04:24:04.595Z,4.13
2024-04-18T04:26:50.648Z,4.16
2024-04-18T04:29:17.515Z,4.50
2024-04-18T04:31:44.457Z,4.56
2024-04-18T04:34:11.544Z,4.60
2024-04-18T04:36:38.484Z,4.81
2024-04-18T04:39:05.400Z,4.96
2024-04-18T04:41:39.683Z,4.69
2024-04-18T04:44:06.581Z,4.63
2024-04-18T04:46:48.507Z,4.34
2024-04-18T04:49:22.589Z,4.22
2024-04-18T04:52:07.793Z,4.25
2024-04-18T04:54:43.477Z,4.53
2024-04-18T04:57:14.731Z,4.19
2024-04-18T04:59:41.873Z,4.16
2024-04-18T05:02:08.917Z,4.28
2024-04-18T05:04:49.065Z,3.66
2024-04-18T05:07:34.032Z,3.83
2024-04-18T05:10:20.402Z,3.64
2024-04-18T05:12:47.372Z,3.94
2024-04-18T05:15:33.572Z,3.72
2024-04-18T05:18:00.557Z,4.13
2024-04-18T05:20:27.471Z,4.57
2024-04-18T05:22:54.352Z,4.24
2024-04-18T05:25:21.256Z,4.13
2024-04-18T05:27:56.932Z,3.48
2024-04-18T05:30:54.566Z,3.71
2024-04-18T05:33:21.642Z,3.58
2024-04-18T05:35:48.625Z,3.64
2024-04-18T05:38:15.567Z,3.37
2024-04-18T05:40:42.462Z,3.12
2024-04-18T05:43:09.367Z,3.31
2024-04-18T05:45:47.065Z,3.29
2024-04-18T05:48:14.265Z,3.05
2024-04-18T05:50:42.171Z,2.79
2024-04-18T05:53:21.513Z,3.00
2024-04-18T05:55:54.635Z,2.77
2024-04-18T05:58:21.632Z,2.93
2024-04-18T06:00:54.515Z,2.82
2024-04-18T06:03:21.553Z,2.67
2024-04-18T06:05:48.487Z,2.71
2024-04-18T06:08:15.680Z,1.78
2024-04-18T06:10:46.547Z,1.65
2024-04-18T06:13:23.713Z,1.49
2024-04-18T06:15:50.679Z,1.45
2024-04-18T06:18:20.398Z,1.55
2024-04-18T06:20:48.909Z,1.84
2024-04-18T06:23:15.834Z,1.87
2024-04-18T06:25:42.938Z,1.77
2024-04-18T06:28:12.203Z,2.13
2024-04-18T06:30:40.383Z,2.72
2024-04-18T06:33:11.778Z,2.06
2024-04-18T06:35:38.905Z,1.79
2024-04-18T06:38:07.390Z,1.69
2024-04-18T06:40:34.466Z,2.09
2024-04-18T06:43:01.437Z,2.24
2024-04-18T06:45:29.842Z,2.45
2024-04-18T06:47:56.960Z,2.48
2024-04-18T06:50:26.357Z,2.26
2024-04-18T06:52:54.120Z,2.36
2024-04-18T06:55:22.995Z,2.21
2024-04-18T06:57:50.183Z,3.06
2024-04-18T07:00:17.089Z,3.50
2024-04-18T07:02:45.288Z,3.21
2024-04-18T07:05:30.916Z,2.71
2024-04-18T07:08:16.578Z,2.89
2024-04-18T07:10:43.947Z,3.22
2024-04-18T07:13:32.861Z,3.17
2024-04-18T07:16:04.173Z,3.53
2024-04-18T07:18:50.652Z,4.57
2024-04-18T07:21:17.776Z,6.94
2024-04-18T07:23:44.715Z,6.03
2024-04-18T07:26:11.591Z,9.78
2024-04-18T07:28:38.485Z,8.64
2024-04-18T07:31:05.372Z,7.33
2024-04-18T07:33:34.478Z,5.11
2024-04-18T07:36:15.828Z,4.60
2024-04-18T07:38:42.721Z,5.29
2024-04-18T07:41:09.665Z,5.31
2024-04-18T07:43:36.592Z,5.01
2024-04-18T07:46:05.106Z,5.59
2024-04-18T07:48:32.150Z,5.74
2024-04-18T07:50:59.113Z,5.37
2024-04-18T07:53:26.017Z,5.52
2024-04-18T07:55:53.001Z,5.82
2024-04-18T07:58:21.301Z,5.79
2024-04-18T08:00:56.148Z,5.79
2024-04-18T08:03:25.977Z,5.69
2024-04-18T08:05:56.732Z,5.73
2024-04-18T08:08:27.691Z,5.54
2024-04-18T08:11:16.112Z,5.80
2024-04-18T08:13:47.445Z,5.94
2024-04-18T08:16:17.767Z,5.68
2024-04-18T08:18:45.958Z,5.76
2024-04-18T08:21:16.537Z,6.29
2024-04-18T08:23:52.234Z,6.46
2024-04-18T08:26:19.128Z,6.58
2024-04-18T08:28:46.052Z,6.17
2024-04-18T08:31:12.930Z,5.86
2024-04-18T08:33:42.806Z,6.15
2024-04-18T08:36:13.889Z,5.84
2024-04-18T08:38:40.967Z,5.60
2024-04-18T08:41:13.991Z,6.03
2024-04-18T08:43:43.521Z,6.09
2024-04-18T08:46:12.581Z,5.95
2024-04-18T08:48:39.722Z,6.58
2024-04-18T08:51:08.888Z,6.33
2024-04-18T08:53:35.979Z,6.36
2024-04-18T08:56:07.718Z,6.16
2024-04-18T08:58:34.657Z,5.67
2024-04-18T09:01:01.683Z,5.10
2024-04-18T09:03:29.387Z,4.93
2024-04-18T09:05:56.348Z,2.89
2024-04-18T09:08:23.239Z,1.35
2024-04-18T09:10:50.564Z,1.43
2024-04-18T09:13:20.622Z,1.29
2024-04-18T09:15:47.540Z,1.36
2024-04-18T09:18:14.543Z,1.64
2024-04-18T09:20:41.549Z,2.01
2024-04-18T09:23:09.572Z,1.92
2024-04-18T09:25:39.489Z,2.14
2024-04-18T09:28:07.366Z,2.48
2024-04-18T09:30:36.108Z,2.96
2024-04-18T09:33:07.195Z,3.30
2024-04-18T09:35:36.677Z,3.43
2024-04-18T09:38:10.129Z,3.55
2024-04-18T09:40:43.901Z,3.15
2024-04-18T09:43:23.657Z,2.53
2024-04-18T09:46:01.571Z,2.18
2024-04-18T09:48:30.163Z,1.72
2024-04-18T09:50:57.128Z,1.48
2024-04-18T09:53:24.119Z,1.69
2024-04-18T09:55:51.621Z,1.99
2024-04-18T09:58:19.526Z,2.17
2024-04-18T10:00:47.204Z,1.82
2024-04-18T10:03:16.720Z,2.10
2024-04-18T10:05:49.323Z,1.82
2024-04-18T10:08:21.603Z,2.11
2024-04-18T10:10:49.287Z,2.25
2024-04-18T10:13:16.680Z,2.41
2024-04-18T10:15:44.345Z,2.68
2024-04-18T10:18:17.165Z,2.62
2024-04-18T10:20:47.259Z,2.48
2024-04-18T10:23:15.319Z,2.13
2024-04-18T10:25:45.109Z,1.60
2024-04-18T10:28:26.514Z,1.46
2024-04-18T10:30:53.592Z,1.82
2024-04-18T10:33:29.633Z,1.62
2024-04-18T10:35:56.861Z,1.98
2024-04-18T10:38:30.364Z,2.19
2024-04-18T10:41:01.500Z,1.54
2024-04-18T10:43:29.411Z,1.91
2024-04-18T10:45:56.903Z,1.91
2024-04-18T10:48:24.047Z,1.88
2024-04-18T10:50:52.475Z,1.85
2024-04-18T10:53:20.059Z,3.00
2024-04-18T10:55:47.084Z,2.34
2024-04-18T10:58:18.137Z,2.50
2024-04-18T11:00:45.951Z,2.19
2024-04-18T11:03:13.221Z,2.00
2024-04-18T11:05:43.830Z,1.76
2024-04-18T11:08:23.293Z,2.43
2024-04-18T11:10:50.320Z,2.59
2024-04-18T11:13:18.375Z,2.34
2024-04-18T11:15:45.504Z,2.08
2024-04-18T11:18:12.595Z,2.29
2024-04-18T11:20:39.926Z,1.96
2024-04-18T11:23:14.749Z,1.80
2024-04-18T11:25:43.180Z,1.89
2024-04-18T11:28:10.508Z,2.39
2024-04-18T11:30:43.049Z,2.14
2024-04-18T11:33:11.287Z,2.48
2024-04-18T11:35:38.296Z,2.63
2024-04-18T11:38:12.426Z,2.56
2024-04-18T11:40:40.587Z,2.49
2024-04-18T11:43:07.514Z,2.09
2024-04-18T11:45:34.502Z,2.05
2024-04-18T11:48:01.715Z,1.85
2024-04-18T11:50:28.721Z,1.93
2024-04-18T11:52:55.706Z,1.75
2024-04-18T11:55:29.133Z,1.76
2024-04-18T11:57:56.242Z,1.87
2024-04-18T12:00:35.704Z,1.66
2024-04-18T12:03:08.411Z,1.60
2024-04-18T12:05:38.177Z,1.65
2024-04-18T12:08:06.913Z,1.47
2024-04-18T12:10:33.985Z,1.42
2024-04-18T12:13:04.026Z,1.50
2024-04-18T12:15:37.830Z,1.47
2024-04-18T12:18:05.432Z,1.40
2024-04-18T12:20:52.661Z,1.55
2024-04-18T12:23:34.987Z,1.33
2024-04-18T12:26:04.857Z,1.38
2024-04-18T12:28:44.043Z,1.89
2024-04-18T12:31:10.923Z,2.25
2024-04-18T12:33:49.846Z,2.10
2024-04-18T12:36:17.603Z,2.04
2024-04-18T12:38:46.083Z,1.93
2024-04-18T12:41:14.146Z,2.04
2024-04-18T12:43:41.109Z,2.06
2024-04-18T12:46:27.905Z,1.91
2024-04-18T12:48:57.469Z,1.70
2024-04-18T12:51:24.904Z,2.44
2024-04-18T12:53:53.895Z,1.86
2024-04-18T12:56:42.041Z,1.88
2024-04-18T12:59:21.188Z,1.49
2024-04-18T13:01:48.143Z,2.18
2024-04-18T13:04:20.727Z,3.22
2024-04-18T13:06:47.782Z,2.35
2024-04-18T13:09:30.520Z,2.24
2024-04-18T13:12:02.967Z,2.33
2024-04-18T13:14:50.071Z,2.27
2024-04-18T13:17:17.202Z,2.09
2024-04-18T13:19:46.763Z,2.34
2024-04-18T13:22:16.442Z,2.60
2024-04-18T13:24:43.468Z,2.90
2024-04-18T13:27:27.752Z,3.67
2024-04-18T13:29:56.010Z,3.31
2024-04-18T13:32:39.146Z,3.04
2024-04-18T13:35:07.451Z,2.38
2024-04-18T13:37:34.551Z,2.43
2024-04-18T13:40:18.702Z,2.09
2024-04-18T13:42:59.910Z,2.58
2024-04-18T13:45:30.974Z,2.45
2024-04-18T13:47:59.564Z,2.18
2024-04-18T13:50:42.723Z,2.40
2024-04-18T13:53:09.602Z,2.39
2024-04-18T13:55:45.248Z,2.97
2024-04-18T13:58:12.440Z,2.67
2024-04-18T14:00:59.503Z,2.79
2024-04-18T14:03:29.857Z,2.63
2024-04-18T14:06:04.769Z,2.70
2024-04-18T14:08:38.809Z,2.79
2024-04-18T14:11:26.619Z,3.03
2024-04-18T14:14:10.470Z,2.97
2024-04-18T14:17:16.207Z,3.36
2024-04-18T14:20:02.001Z,2.84
2024-04-18T14:22:28.951Z,2.48
2024-04-18T14:24:55.823Z,2.82
2024-04-18T14:27:34.916Z,1.87
2024-04-18T14:30:02.324Z,1.50
2024-04-18T14:32:35.279Z,1.28
2024-04-18T14:35:02.299Z,1.32
2024-04-18T14:37:30.856Z,1.35
2024-04-18T14:39:57.718Z,1.12
2024-04-18T14:42:24.631Z,1.41
2024-04-18T14:44:52.981Z,1.65
2024-04-18T14:47:19.957Z,1.37
2024-04-18T14:50:01.649Z,1.54
2024-04-18T14:52:34.408Z,1.56
2024-04-18T14:55:21.403Z,1.58
2024-04-18T14:57:48.293Z,1.92
2024-04-18T15:00:18.908Z,1.96
2024-04-18T15:02:46.440Z,1.79
2024-04-18T15:05:32.943Z,1.95
2024-04-18T15:07:59.892Z,2.61
2024-04-18T15:10:46.922Z,2.31
2024-04-18T15:13:13.846Z,2.37
2024-04-18T15:15:43.746Z,2.42
2024-04-18T15:18:12.576Z,2.67
2024-04-18T15:20:40.106Z,2.43
2024-04-18T15:23:12.692Z,2.67
2024-04-18T15:25:39.556Z,2.95
2024-04-18T15:28:06.826Z,2.96
2024-04-18T15:30:34.036Z,2.56
2024-04-18T15:33:20.999Z,2.71
2024-04-18T15:35:47.935Z,2.82
2024-04-18T15:38:17.412Z,2.68
2024-04-18T15:41:02.927Z,3.00
2024-04-18T15:43:36.774Z,3.54
2024-04-18T15:46:04.720Z,4.25
2024-04-18T15:48:31.882Z,4.05
2024-04-18T15:50:59.093Z,3.52
2024-04-18T15:53:30.341Z,3.92
2024-04-18T15:56:07.202Z,3.28
2024-04-18T15:58:52.919Z,3.63
2024-04-18T16:01:19.793Z,3.89
2024-04-18T16:04:05.610Z,3.78
2024-04-18T16:06:52.572Z,4.03
2024-04-18T16:09:39.443Z,3.66
2024-04-18T16:12:22.522Z,4.07
2024-04-18T16:15:03.378Z,3.83
2024-04-18T16:17:31.834Z,3.19
2024-04-18T16:20:13.224Z,3.49
2024-04-18T16:22:40.186Z,3.49
2024-04-18T16:25:25.593Z,3.06
2024-04-18T16:27:52.519Z,3.14
2024-04-18T16:30:20.805Z,3.21
2024-04-18T16:32:50.607Z,3.50
2024-04-18T16:35:17.760Z,3.16
2024-04-18T16:38:04.755Z,3.04
2024-04-18T16:40:49.921Z,2.58
2024-04-18T16:43:38.123Z,2.52
2024-04-18T16:46:06.101Z,2.89
2024-04-18T16:48:33.362Z,2.64
2024-04-18T16:51:01.026Z,3.25
2024-04-18T16:53:51.634Z,2.82
2024-04-18T16:56:18.512Z,2.68
2024-04-18T16:58:54.953Z,2.65
2024-04-18T17:01:22.614Z,2.62
2024-04-18T17:03:50.081Z,2.39
2024-04-18T17:06:41.961Z,2.94
2024-04-18T17:09:14.719Z,2.98
2024-04-18T17:11:41.684Z,2.65
2024-04-18T17:14:26.982Z,2.54
2024-04-18T17:16:53.947Z,2.57
2024-04-18T17:19:21.320Z,3.07
2024-04-18T17:21:48.474Z,2.88
2024-04-18T17:24:15.608Z,3.30
2024-04-18T17:27:01.435Z,3.15
2024-04-18T17:29:28.289Z,3.43
2024-04-18T17:31:55.233Z,3.43
2024-04-18T17:34:23.202Z,3.24
2024-04-18T17:36:50.197Z,3.12
2024-04-18T17:39:37.096Z,3.44
2024-04-18T17:42:04.436Z,3.18
2024-04-18T17:44:51.333Z,3.30
2024-04-18T17:47:32.652Z,3.20
2024-04-18T17:50:03.787Z,3.15
2024-04-18T17:52:30.691Z,3.48
2024-04-18T17:54:59.706Z,3.63
2024-04-18T17:57:27.749Z,3.84
2024-04-18T18:00:13.695Z,4.79
2024-04-18T18:02:41.669Z,4.75
2024-04-18T18:05:08.719Z,4.55
2024-04-18T18:07:38.231Z,4.31
2024-04-18T18:10:05.452Z,4.57
2024-04-18T18:12:37.946Z,4.86
2024-04-18T18:15:05.413Z,4.63
2024-04-18T18:17:36.803Z,4.48
2024-04-18T18:20:03.847Z,4.00
2024-04-18T18:22:47.283Z,4.54
2024-04-18T18:25:14.843Z,4.76
2024-04-18T18:27:43.049Z,4.47
2024-04-18T18:30:28.201Z,5.11
2024-04-18T18:32:55.232Z,4.85
2024-04-18T18:35:24.482Z,5.15
2024-04-18T18:37:53.206Z,5.15
2024-04-18T18:40:20.082Z,4.72
2024-04-18T18:42:47.058Z,4.50
2024-04-18T18:45:14.100Z,4.31
2024-04-18T18:47:41.102Z,4.16
2024-04-18T18:50:18.799Z,4.56
2024-04-18T18:52:45.670Z,4.53
2024-04-18T18:55:35.128Z,4.65
2024-04-18T18:58:02.167Z,4.89
2024-04-18T19:00:30.797Z,5.28
2024-04-18T19:03:09.266Z,5.83
2024-04-18T19:05:50.995Z,5.85
2024-04-18T19:08:17.873Z,5.78
2024-04-18T19:10:54.295Z,5.67
2024-04-18T19:13:21.186Z,6.86
2024-04-18T19:15:58.567Z,6.43
2024-04-18T19:18:25.910Z,4.93
2024-04-18T19:20:52.903Z,5.01
2024-04-18T19:23:22.240Z,6.05
2024-04-18T19:25:49.807Z,6.41
2024-04-18T19:28:16.924Z,5.49
2024-04-18T19:30:44.002Z,5.70
2024-04-18T19:33:11.181Z,5.91
2024-04-18T19:35:38.122Z,5.86
2024-04-18T19:38:05.001Z,6.37
2024-04-18T19:40:49.884Z,9.34
2024-04-18T19:43:16.954Z,10.43
2024-04-18T19:45:54.343Z,11.29
2024-04-18T19:48:21.389Z,7.48
2024-04-18T19:50:48.343Z,7.08
2024-04-18T19:53:24.115Z,7.23
2024-04-18T19:55:51.383Z,7.29
2024-04-18T19:58:18.686Z,6.61
2024-04-18T20:00:46.040Z,6.77
2024-04-18T20:03:13.423Z,6.80
2024-04-18T20:05:40.762Z,6.30
2024-04-18T20:08:08.094Z,6.05
2024-04-18T20:10:35.321Z,6.01
2024-04-18T20:13:02.195Z,5.49
2024-04-18T20:15:30.013Z,5.05
2024-04-18T20:17:57.101Z,4.77
2024-04-18T20:20:24.056Z,4.48
2024-04-18T20:22:52.682Z,4.73
2024-04-18T20:25:19.741Z,5.16
2024-04-18T20:27:46.964Z,5.39
2024-04-18T20:30:14.089Z,5.39
2024-04-18T20:33:01.248Z,6.43
2024-04-18T20:35:28.228Z,6.47
2024-04-18T20:37:55.145Z,6.59
2024-04-18T20:40:24.445Z,6.07
2024-04-18T20:42:51.401Z,6.01
2024-04-18T20:45:19.509Z,5.69
2024-04-18T20:47:46.515Z,5.64
2024-04-18T20:50:13.398Z,5.14
2024-04-18T20:52:40.329Z,5.14
2024-04-18T20:55:07.358Z,5.31
2024-04-18T20:57:34.325Z,5.70
2024-04-18T21:00:01.242Z,5.66
2024-04-18T21:02:28.729Z,5.28
2024-04-18T21:04:56.113Z,5.48
2024-04-18T21:07:23.596Z,5.18
2024-04-18T21:09:50.661Z,5.35
2024-04-18T21:12:17.788Z,5.50
2024-04-18T21:14:44.787Z,5.84
2024-04-18T21:17:11.778Z,6.08
2024-04-18T21:19:38.824Z,6.46
2024-04-18T21:22:06.844Z,9.21
2024-04-18T21:24:33.928Z,15.74
2024-04-18T21:27:01.001Z,14.49
2024-04-18T21:29:27.979Z,8.30
2024-04-18T21:31:55.061Z,9.89
2024-04-18T21:34:22.169Z,5.76
2024-04-18T21:36:49.270Z,4.77
2024-04-18T21:39:16.341Z,4.60
2024-04-18T21:41:43.368Z,4.63
2024-04-18T21:44:10.793Z,4.58
2024-04-18T21:46:37.772Z,4.61
2024-04-18T21:49:04.794Z,4.70
2024-04-18T21:51:31.851Z,4.81
2024-04-18T21:53:59.840Z,4.95
2024-04-18T21:56:26.840Z,6.65
2024-04-18T21:58:53.865Z,7.22
2024-04-18T22:01:43.015Z,6.21
2024-04-18T22:04:11.220Z,6.01
2024-04-18T22:06:38.687Z,5.04
2024-04-18T22:09:05.984Z,4.75
2024-04-18T22:11:33.037Z,4.53
2024-04-18T22:14:00.096Z,4.34
2024-04-18T22:16:27.123Z,4.59
2024-04-18T22:18:54.475Z,4.55
2024-04-18T22:21:40.237Z,4.43
2024-04-18T22:24:07.970Z,4.53
2024-04-18T22:26:35.775Z,4.67
2024-04-18T22:29:03.467Z,4.67
2024-04-18T22:31:30.474Z,4.58
2024-04-18T22:33:58.310Z,4.44
2024-04-18T22:36:28.560Z,4.80
2024-04-18T22:38:56.502Z,4.66
2024-04-18T22:41:23.660Z,4.65
2024-04-18T22:43:50.635Z,4.78
2024-04-18T22:46:17.608Z,4.62
2024-04-18T22:48:44.690Z,4.44
2024-04-18T22:51:11.781Z,4.42
2024-04-18T22:53:38.755Z,4.43
2024-04-18T22:56:05.771Z,4.16
2024-04-18T22:58:32.841Z,4.78
2024-04-18T23:01:03.328Z,4.17
2024-04-18T23:03:30.621Z,4.01
2024-04-18T23:06:12.619Z,4.42
2024-04-18T23:08:43.470Z,4.43
2024-04-18T23:11:10.739Z,4.16
2024-04-18T23:13:37.798Z,3.82
2024-04-18T23:16:05.182Z,3.99
2024-04-18T23:18:32.486Z,3.66
2024-04-18T23:20:59.629Z,4.07
2024-04-18T23:23:36.115Z,3.85
2024-04-18T23:26:03.525Z,3.61
2024-04-18T23:28:30.513Z,3.67
2024-04-18T23:30:57.509Z,3.86
2024-04-18T23:33:24.658Z,3.45
2024-04-18T23:35:51.805Z,3.67
2024-04-18T23:38:18.784Z,3.60
2024-04-18T23:40:45.774Z,3.77
2024-04-18T23:43:12.825Z,3.58
2024-04-18T23:45:39.925Z,3.59
2024-04-18T23:48:08.160Z,3.68
2024-04-18T23:50:35.241Z,3.64
2024-04-18T23:53:02.233Z,3.67
2024-04-18T23:55:29.322Z,3.42
2024-04-18T23:57:56.346Z,3.57
